Port Alsworth Airport

About
Name: Port Alsworth Airport
Identifier:  PTA/PALJ
Serves:  Port Alsworth, Alaska
Owner:  Glen Alsworth, Sr.
Public/Private:  Private
Local Time:  25. Aug 00:53 AKDT
Description: Port Alsworth Airport is a private-use airport serving Port Alsworth which is located in the Lake and Peninsula Borough of the U.S. state of Alaska. As per Federal Aviation Administration records, the airport had 1,938 passenger boardings in calendar year 2008, an increase of 2,592% from the 72 enplanements in 2007.
Source: Wikipedia
Location
Port Alsworth
  United States

Runways
Identifier Length (m/ft) Surface
5/23 3,000/3,000 Dirt/Gravel
Flights per Day
0 flights
Distance: 60km (37mi)
Punctuality
0% (0 flights per day delayed)
Delay Average: 298 minutes
Current Weather
 19 C (Humidity: 52%)
  7kt (12km/h / 8mph) from 220°
  Broken clouds at 10,000 feet (3,048 meter)
  64km (40 mi.)
 METAR PALJ 250050Z 22007KT 40SM BKN100 19/09 A2976 RMK EST PASS OPEN NOSPECI

Current Flights

Departures
Number Departure To Airline
Arrivals
Number Arrival From Airline

Current Delays

Departures
N/A
Arrivals
N/A